createdAt,value
2018-08-10T00:00:18.410Z,99.90
2018-08-10T00:02:46.791Z,99.90
2018-08-10T00:05:15.179Z,99.90
2018-08-10T00:07:43.584Z,99.90
2018-08-10T00:10:13.390Z,99.90
2018-08-10T00:12:41.890Z,99.90
2018-08-10T00:15:11.679Z,99.90
2018-08-10T00:17:40.517Z,99.90
2018-08-10T00:20:12.593Z,99.90
2018-08-10T00:22:40.885Z,99.90
2018-08-10T00:25:11.621Z,99.90
2018-08-10T00:27:40.485Z,99.90
2018-08-10T00:30:12.473Z,99.90
2018-08-10T00:32:41.334Z,99.90
2018-08-10T00:35:10.539Z,99.90
2018-08-10T00:37:39.433Z,99.90
2018-08-10T00:40:10.565Z,99.90
2018-08-10T00:42:38.957Z,99.90
2018-08-10T00:45:08.846Z,99.90
2018-08-10T00:47:37.318Z,99.90
2018-08-10T00:50:08.415Z,99.90
2018-08-10T00:52:36.867Z,99.90
2018-08-10T00:55:06.689Z,99.90
2018-08-10T00:57:35.109Z,99.90
2018-08-10T01:00:03.779Z,99.90
2018-08-10T01:02:32.150Z,99.90
2018-08-10T01:05:00.478Z,99.90
2018-08-10T01:07:28.963Z,99.90
2018-08-10T01:09:57.332Z,99.90
2018-08-10T01:12:25.640Z,99.90
2018-08-10T01:14:54.041Z,99.90
2018-08-10T01:17:22.354Z,99.90
2018-08-10T01:19:50.629Z,99.90
2018-08-10T01:22:18.872Z,99.90
2018-08-10T01:24:47.232Z,99.90
2018-08-10T01:27:20.833Z,99.90
2018-08-10T01:29:49.159Z,99.90
2018-08-10T01:32:17.493Z,99.90
2018-08-10T01:34:45.831Z,99.90
2018-08-10T01:37:14.162Z,99.90
2018-08-10T01:39:42.486Z,99.90
2018-08-10T01:42:10.781Z,99.90
2018-08-10T01:44:39.172Z,99.90
2018-08-10T01:47:07.521Z,99.90
2018-08-10T01:49:35.867Z,99.90
2018-08-10T01:52:04.155Z,99.90
2018-08-10T01:54:32.522Z,99.90
2018-08-10T01:57:00.899Z,99.90
2018-08-10T01:59:29.276Z,99.90
2018-08-10T02:01:57.522Z,99.90
2018-08-10T02:04:25.915Z,99.90
2018-08-10T02:06:54.257Z,99.90
2018-08-10T02:09:22.615Z,99.90
2018-08-10T02:11:51.005Z,99.90
2018-08-10T02:14:19.309Z,99.90
2018-08-10T02:16:47.652Z,99.90
2018-08-10T02:19:16.019Z,99.90
2018-08-10T02:21:44.362Z,99.90
2018-08-10T02:24:12.677Z,99.90
2018-08-10T02:26:40.982Z,99.90
2018-08-10T02:29:09.355Z,99.90
2018-08-10T02:31:37.703Z,99.90
2018-08-10T02:34:06.052Z,99.90
2018-08-10T02:36:34.626Z,99.90
2018-08-10T02:39:02.968Z,99.90
2018-08-10T02:41:31.309Z,99.90
2018-08-10T02:43:59.797Z,99.90
2018-08-10T02:46:28.221Z,99.90
2018-08-10T02:48:56.545Z,99.90
2018-08-10T02:51:24.920Z,99.90
2018-08-10T02:53:53.334Z,99.90
2018-08-10T02:56:21.714Z,99.90
2018-08-10T02:58:50.129Z,99.90
2018-08-10T03:01:18.487Z,99.90
2018-08-10T03:03:46.864Z,99.90
2018-08-10T03:06:15.221Z,99.90
2018-08-10T03:08:46.486Z,99.90
2018-08-10T03:11:14.940Z,99.90
2018-08-10T03:13:43.314Z,99.90
2018-08-10T03:16:11.701Z,99.90
2018-08-10T03:18:40.043Z,99.90
2018-08-10T03:21:08.354Z,99.90
2018-08-10T03:23:36.686Z,99.90
2018-08-10T03:26:05.003Z,99.90
2018-08-10T03:28:33.375Z,99.90
2018-08-10T03:31:01.777Z,99.90
2018-08-10T03:33:30.241Z,99.90
2018-08-10T03:35:58.685Z,99.90
2018-08-10T03:38:27.182Z,99.90
2018-08-10T03:40:55.647Z,99.90
2018-08-10T03:43:24.155Z,99.90
2018-08-10T03:45:52.563Z,99.90
2018-08-10T03:48:20.919Z,99.90
2018-08-10T03:50:49.282Z,99.90
2018-08-10T03:53:17.630Z,99.90
2018-08-10T03:55:45.968Z,99.90
2018-08-10T03:58:14.244Z,99.90
2018-08-10T04:00:42.609Z,99.90
2018-08-10T04:03:11.122Z,99.90
2018-08-10T04:05:39.485Z,99.90
2018-08-10T04:08:07.901Z,99.90
2018-08-10T04:10:36.272Z,99.90
2018-08-10T04:13:04.652Z,99.90
2018-08-10T04:15:33.002Z,99.90
2018-08-10T04:18:01.416Z,99.90
2018-08-10T04:20:29.742Z,99.90
2018-08-10T04:22:58.161Z,99.90
2018-08-10T04:25:26.535Z,99.90
2018-08-10T04:27:54.907Z,99.90
2018-08-10T04:30:23.253Z,99.90
2018-08-10T04:32:51.635Z,99.90
2018-08-10T04:35:20.022Z,99.90
2018-08-10T04:37:48.431Z,99.90
2018-08-10T04:40:16.826Z,99.90
2018-08-10T04:42:45.188Z,99.90
2018-08-10T04:45:13.562Z,99.90
2018-08-10T04:47:48.759Z,99.90
2018-08-10T04:50:17.851Z,99.90
2018-08-10T04:52:46.152Z,99.90
2018-08-10T04:55:14.449Z,99.90
2018-08-10T04:57:42.825Z,99.90
2018-08-10T05:00:13.146Z,99.90
2018-08-10T05:02:41.525Z,99.90
2018-08-10T05:05:10.797Z,99.90
2018-08-10T05:07:40.243Z,99.90
2018-08-10T05:10:09.005Z,99.90
2018-08-10T05:12:38.162Z,99.90
2018-08-10T05:15:07.560Z,99.90
2018-08-10T05:17:36.254Z,99.90
2018-08-10T05:20:05.809Z,99.90
2018-08-10T05:22:34.153Z,99.90
2018-08-10T05:25:02.585Z,99.90
2018-08-10T05:27:31.101Z,99.90
2018-08-10T05:29:59.517Z,99.90
2018-08-10T05:32:27.967Z,99.90
2018-08-10T05:34:56.552Z,99.90
2018-08-10T05:37:24.765Z,99.90
2018-08-10T05:39:52.935Z,99.90
2018-08-10T05:42:21.159Z,99.90
2018-08-10T05:44:49.306Z,99.90
2018-08-10T05:47:17.628Z,99.90
2018-08-10T05:49:45.738Z,99.90
2018-08-10T05:52:13.893Z,99.90
2018-08-10T05:54:42.054Z,99.90
2018-08-10T05:57:10.214Z,99.90
2018-08-10T05:59:38.361Z,99.90
2018-08-10T06:02:06.634Z,99.90
2018-08-10T06:04:34.790Z,99.90
2018-08-10T06:07:03.001Z,99.90
2018-08-10T06:09:31.176Z,99.90
2018-08-10T06:11:59.309Z,99.90
2018-08-10T06:14:27.476Z,99.90
2018-08-10T06:16:55.628Z,99.90
2018-08-10T06:19:23.878Z,99.90
2018-08-10T06:21:52.126Z,99.90
2018-08-10T06:24:20.298Z,99.90
2018-08-10T06:26:48.513Z,99.90
2018-08-10T06:29:16.723Z,99.90
2018-08-10T06:31:44.924Z,99.90
2018-08-10T06:34:13.237Z,99.90
2018-08-10T06:36:41.370Z,99.90
2018-08-10T06:39:10.340Z,99.90
2018-08-10T06:41:38.663Z,99.90
2018-08-10T06:44:07.860Z,99.90
2018-08-10T06:46:36.091Z,99.90
2018-08-10T06:49:04.364Z,99.90
2018-08-10T06:51:32.643Z,99.90
2018-08-10T06:54:00.869Z,99.90
2018-08-10T06:56:29.082Z,99.90
2018-08-10T06:58:57.317Z,99.90
2018-08-10T07:01:25.595Z,99.90
2018-08-10T07:03:54.175Z,99.90
2018-08-10T07:06:22.407Z,99.90
2018-08-10T07:08:50.665Z,99.90
2018-08-10T07:11:18.882Z,99.90
2018-08-10T07:13:47.128Z,99.90
2018-08-10T07:16:15.360Z,99.90
2018-08-10T07:18:43.679Z,99.90
2018-08-10T07:21:11.892Z,99.90
2018-08-10T07:23:40.151Z,99.90
2018-08-10T07:26:08.513Z,99.90
2018-08-10T07:28:36.734Z,99.90
2018-08-10T07:31:04.970Z,99.90
2018-08-10T07:33:33.245Z,99.90
2018-08-10T07:36:01.453Z,99.90
2018-08-10T07:38:29.732Z,99.90
2018-08-10T07:40:57.953Z,99.90
2018-08-10T07:43:26.163Z,99.90
2018-08-10T07:45:54.357Z,99.90
2018-08-10T07:48:22.577Z,99.90
2018-08-10T07:50:50.773Z,99.90
2018-08-10T07:53:19.046Z,99.90
2018-08-10T07:55:47.252Z,99.90
2018-08-10T07:58:15.477Z,99.90
2018-08-10T08:00:43.856Z,99.90
2018-08-10T08:03:12.085Z,99.90
2018-08-10T08:05:40.232Z,99.90
2018-08-10T08:08:08.449Z,99.90
2018-08-10T08:10:36.714Z,99.90
2018-08-10T08:13:04.904Z,99.90
2018-08-10T08:15:33.069Z,99.90
2018-08-10T08:18:01.361Z,99.90
2018-08-10T08:20:29.531Z,99.90
2018-08-10T08:23:00.259Z,99.90
2018-08-10T08:25:28.512Z,99.90
2018-08-10T08:27:56.739Z,99.90
2018-08-10T08:30:24.986Z,99.90
2018-08-10T08:32:53.206Z,99.90
2018-08-10T08:35:21.439Z,99.90
2018-08-10T08:37:49.690Z,99.90
2018-08-10T08:40:20.630Z,99.90
2018-08-10T08:42:49.518Z,99.90
2018-08-10T08:46:20.963Z,99.90
2018-08-10T08:48:51.544Z,99.90
2018-08-10T08:51:21.292Z,99.90
2018-08-10T08:55:04.021Z,99.90
2018-08-10T08:57:32.876Z,99.90
2018-08-10T09:00:01.232Z,96.80
2018-08-10T09:02:29.873Z,96.10
2018-08-10T09:05:06.516Z,96.40
2018-08-10T09:07:34.959Z,95.90
2018-08-10T09:10:05.641Z,95.30
2018-08-10T09:12:33.826Z,95.30
2018-08-10T09:15:05.097Z,95.30
2018-08-10T09:17:33.299Z,97.30
2018-08-10T09:20:01.442Z,97.70
2018-08-10T09:22:30.025Z,99.00
2018-08-10T09:24:58.213Z,99.10
2018-08-10T09:27:57.218Z,99.30
2018-08-10T09:30:25.404Z,99.90
2018-08-10T09:32:53.594Z,99.90
2018-08-10T09:35:21.876Z,99.90
2018-08-10T09:37:50.092Z,99.90
2018-08-10T09:40:19.937Z,99.90
2018-08-10T09:42:48.167Z,97.60
2018-08-10T09:45:17.220Z,96.50
2018-08-10T09:47:46.463Z,97.70
2018-08-10T09:50:15.372Z,98.20
2018-08-10T09:52:56.656Z,97.80
2018-08-10T09:55:28.772Z,98.00
2018-08-10T09:57:59.274Z,96.60
2018-08-10T10:00:32.789Z,95.70
2018-08-10T10:03:06.461Z,95.10
2018-08-10T10:05:34.670Z,95.50
2018-08-10T10:08:02.842Z,96.30
2018-08-10T10:10:31.017Z,97.00
2018-08-10T10:12:59.248Z,96.90
2018-08-10T10:15:27.468Z,96.70
2018-08-10T10:17:55.642Z,95.30
2018-08-10T10:20:23.866Z,93.40
2018-08-10T10:22:52.090Z,91.80
2018-08-10T10:25:20.353Z,90.00
2018-08-10T10:27:48.593Z,84.80
2018-08-10T10:30:16.800Z,82.20
2018-08-10T10:32:45.076Z,79.20
2018-08-10T10:35:13.316Z,77.00
2018-08-10T10:37:41.610Z,75.00
2018-08-10T10:40:10.699Z,72.10
2018-08-10T10:42:38.943Z,65.60
2018-08-10T10:45:09.327Z,59.20
2018-08-10T10:47:37.537Z,60.40
2018-08-10T10:50:06.581Z,61.20
2018-08-10T10:52:34.840Z,56.50
2018-08-10T10:55:03.114Z,55.80
2018-08-10T10:57:31.317Z,62.20
2018-08-10T10:59:59.531Z,73.20
2018-08-10T11:02:27.798Z,77.60
2018-08-10T11:04:56.018Z,80.40
2018-08-10T11:07:24.292Z,82.10
2018-08-10T11:09:52.532Z,83.50
2018-08-10T11:12:20.717Z,84.90
2018-08-10T11:14:49.016Z,90.30
2018-08-10T11:17:17.240Z,92.50
2018-08-10T11:19:45.587Z,94.30
2018-08-10T11:22:13.764Z,94.40
2018-08-10T11:24:42.025Z,93.20
2018-08-10T11:27:10.209Z,90.70
2018-08-10T11:29:38.417Z,93.30
2018-08-10T11:32:06.732Z,91.50
2018-08-10T11:34:34.870Z,92.60
2018-08-10T11:37:03.060Z,93.20
2018-08-10T11:39:31.257Z,92.00
2018-08-10T11:41:59.454Z,91.90
2018-08-10T11:44:27.683Z,89.00
2018-08-10T11:46:55.905Z,86.00
2018-08-10T11:49:24.160Z,79.10
2018-08-10T11:51:52.346Z,67.60
2018-08-10T11:54:20.588Z,62.30
2018-08-10T11:56:48.883Z,62.90
2018-08-10T11:59:17.168Z,62.20
2018-08-10T12:01:45.444Z,64.80
2018-08-10T12:04:13.617Z,56.30
2018-08-10T12:06:41.846Z,49.10
2018-08-10T12:09:11.456Z,42.90
2018-08-10T12:11:40.090Z,42.90
2018-08-10T12:14:08.455Z,43.50
2018-08-10T12:16:36.665Z,42.60
2018-08-10T12:19:04.949Z,43.70
2018-08-10T12:21:33.230Z,47.60
2018-08-10T12:24:01.470Z,45.40
2018-08-10T12:26:29.656Z,46.70
2018-08-10T12:28:57.969Z,45.30
2018-08-10T12:31:26.206Z,43.30
2018-08-10T12:33:54.795Z,39.80
2018-08-10T12:36:23.041Z,40.10
2018-08-10T12:38:51.224Z,40.60
2018-08-10T12:41:19.404Z,42.30
2018-08-10T12:43:47.625Z,40.90
2018-08-10T12:46:16.043Z,43.00
2018-08-10T12:48:44.281Z,41.80
2018-08-10T12:51:12.555Z,41.30
2018-08-10T12:53:40.801Z,40.80
2018-08-10T12:56:09.026Z,44.00
2018-08-10T12:58:37.233Z,44.20
2018-08-10T13:01:05.443Z,44.50
2018-08-10T13:03:33.650Z,44.20
2018-08-10T13:06:01.848Z,42.40
2018-08-10T13:08:30.085Z,43.20
2018-08-10T13:10:58.307Z,42.80
2018-08-10T13:13:26.519Z,43.60
2018-08-10T13:15:54.762Z,44.40
2018-08-10T13:18:23.045Z,43.50
2018-08-10T13:20:51.213Z,44.90
2018-08-10T13:23:19.431Z,43.30
2018-08-10T13:25:47.670Z,42.90
2018-08-10T13:28:15.896Z,44.50
2018-08-10T13:30:44.108Z,45.20
2018-08-10T13:33:12.434Z,43.80
2018-08-10T13:35:40.661Z,44.10
2018-08-10T13:38:08.934Z,46.20
2018-08-10T13:40:37.176Z,46.60
2018-08-10T13:43:05.389Z,45.50
2018-08-10T13:45:33.595Z,46.20
2018-08-10T13:48:01.799Z,47.30
2018-08-10T13:50:30.013Z,48.90
2018-08-10T13:52:58.233Z,49.80
2018-08-10T13:55:26.481Z,49.00
2018-08-10T13:57:54.769Z,50.20
2018-08-10T14:00:24.176Z,50.40
2018-08-10T14:02:53.644Z,51.00
2018-08-10T14:05:22.669Z,50.80
2018-08-10T14:07:51.233Z,50.70
2018-08-10T14:10:19.477Z,51.60
2018-08-10T14:12:47.703Z,53.00
2018-08-10T14:15:15.931Z,54.10
2018-08-10T14:17:44.140Z,53.60
2018-08-10T14:20:12.460Z,54.30
2018-08-10T14:22:40.764Z,53.00
2018-08-10T14:25:10.035Z,52.00
2018-08-10T14:27:38.260Z,53.30
2018-08-10T14:30:09.135Z,52.40
2018-08-10T14:32:37.448Z,52.60
2018-08-10T14:35:05.752Z,53.30
2018-08-10T14:37:34.937Z,53.20
2018-08-10T14:40:03.189Z,50.80
2018-08-10T14:42:31.377Z,50.90
2018-08-10T14:44:59.561Z,49.20
2018-08-10T14:47:27.816Z,49.30
2018-08-10T14:49:56.012Z,49.60
2018-08-10T14:52:24.198Z,47.70
2018-08-10T14:54:52.471Z,48.10
2018-08-10T14:57:20.738Z,49.40
2018-08-10T14:59:48.993Z,50.00
2018-08-10T15:02:17.151Z,49.70
2018-08-10T15:04:45.373Z,50.00
2018-08-10T15:07:13.638Z,49.20
2018-08-10T15:09:41.842Z,48.00
2018-08-10T15:12:10.206Z,48.10
2018-08-10T15:14:38.415Z,48.60
2018-08-10T15:17:06.779Z,49.00
2018-08-10T15:19:35.130Z,49.80
2018-08-10T15:22:03.659Z,49.50
2018-08-10T15:24:32.042Z,49.10
2018-08-10T15:27:00.544Z,49.60
2018-08-10T15:29:28.955Z,49.80
2018-08-10T15:31:57.411Z,50.00
2018-08-10T15:34:25.891Z,51.00
2018-08-10T15:36:54.294Z,51.50
2018-08-10T15:39:22.693Z,51.60
2018-08-10T15:41:51.128Z,50.50
2018-08-10T15:44:19.586Z,51.70
2018-08-10T15:46:48.061Z,51.20
2018-08-10T15:49:16.456Z,49.20
2018-08-10T15:51:44.838Z,49.80
2018-08-10T15:54:13.198Z,50.20
2018-08-10T15:56:41.854Z,49.90
2018-08-10T15:59:10.395Z,51.30
2018-08-10T16:01:38.823Z,52.10
2018-08-10T16:04:07.586Z,50.30
2018-08-10T16:06:36.119Z,50.70
2018-08-10T16:09:08.328Z,50.60
2018-08-10T16:11:36.881Z,50.90
2018-08-10T16:14:05.363Z,50.60
2018-08-10T16:16:33.674Z,51.00
2018-08-10T16:19:02.155Z,50.90
2018-08-10T16:21:30.572Z,51.00
2018-08-10T16:23:59.005Z,50.90
2018-08-10T16:26:27.432Z,50.70
2018-08-10T16:28:55.954Z,50.80
2018-08-10T16:31:24.379Z,50.80
2018-08-10T16:33:53.087Z,50.90
2018-08-10T16:36:21.516Z,51.70
2018-08-10T16:38:49.911Z,50.20
2018-08-10T16:41:18.282Z,51.20
2018-08-10T16:43:47.071Z,51.20
2018-08-10T16:46:15.557Z,50.50
2018-08-10T16:48:43.925Z,50.60
2018-08-10T16:51:12.351Z,50.80
2018-08-10T16:53:40.786Z,50.60
2018-08-10T16:56:09.238Z,50.80
2018-08-10T16:58:37.769Z,51.20
2018-08-10T17:01:06.255Z,51.90
2018-08-10T17:03:34.634Z,52.50
2018-08-10T17:06:03.143Z,52.60
2018-08-10T17:08:31.467Z,52.10
2018-08-10T17:10:59.839Z,52.50
2018-08-10T17:13:28.282Z,53.20
2018-08-10T17:15:56.745Z,53.00
2018-08-10T17:18:25.051Z,52.80
2018-08-10T17:20:53.366Z,52.00
2018-08-10T17:23:21.814Z,53.20
2018-08-10T17:25:50.184Z,52.80
2018-08-10T17:28:18.548Z,52.10
2018-08-10T17:30:46.990Z,52.40
2018-08-10T17:33:15.563Z,52.20
2018-08-10T17:35:43.862Z,52.30
2018-08-10T17:38:12.333Z,52.10
2018-08-10T17:40:40.764Z,52.20
2018-08-10T17:43:09.389Z,52.40
2018-08-10T17:45:37.813Z,52.20
2018-08-10T17:48:06.406Z,53.00
2018-08-10T17:50:34.961Z,53.30
2018-08-10T17:53:03.506Z,53.90
2018-08-10T17:55:31.954Z,54.20
2018-08-10T17:58:00.384Z,55.00
2018-08-10T18:00:28.870Z,55.00
2018-08-10T18:02:57.318Z,55.00
2018-08-10T18:05:25.654Z,54.60
2018-08-10T18:07:54.026Z,54.60
2018-08-10T18:10:22.554Z,55.30
2018-08-10T18:12:51.015Z,55.50
2018-08-10T18:15:20.150Z,56.20
2018-08-10T18:17:48.907Z,57.10
2018-08-10T18:20:20.069Z,57.20
2018-08-10T18:22:49.725Z,56.80
2018-08-10T18:25:19.418Z,57.20
2018-08-10T18:27:47.821Z,57.70
2018-08-10T18:30:19.043Z,58.30
2018-08-10T18:32:47.877Z,58.30
2018-08-10T18:35:16.407Z,58.10
2018-08-10T18:37:45.497Z,58.10
2018-08-10T18:40:14.851Z,58.20
2018-08-10T18:42:44.201Z,59.10
2018-08-10T18:45:14.554Z,58.70
2018-08-10T18:47:42.987Z,59.40
2018-08-10T18:50:13.141Z,58.30
2018-08-10T18:52:41.653Z,58.40
2018-08-10T18:55:11.881Z,59.30
2018-08-10T18:57:40.461Z,59.60
2018-08-10T19:00:11.710Z,60.80
2018-08-10T19:02:40.296Z,61.70
2018-08-10T19:05:10.517Z,61.50
2018-08-10T19:07:39.056Z,62.20
2018-08-10T19:10:08.306Z,62.10
2018-08-10T19:12:37.387Z,62.40
2018-08-10T19:15:08.424Z,62.80
2018-08-10T19:17:36.912Z,64.60
2018-08-10T19:20:05.294Z,64.30
2018-08-10T19:22:33.658Z,64.60
2018-08-10T19:25:02.361Z,65.80
2018-08-10T19:27:30.739Z,66.30
2018-08-10T19:29:59.227Z,67.20
2018-08-10T19:32:27.690Z,67.90
2018-08-10T19:34:56.125Z,67.90
2018-08-10T19:37:24.551Z,68.20
2018-08-10T19:39:53.216Z,70.60
2018-08-10T19:42:21.724Z,69.70
2018-08-10T19:44:50.267Z,72.70
2018-08-10T19:47:18.742Z,71.80
2018-08-10T19:49:47.196Z,75.00
2018-08-10T19:52:15.661Z,75.50
2018-08-10T19:54:44.227Z,76.10
2018-08-10T19:57:12.616Z,74.50
2018-08-10T19:59:41.298Z,75.60
2018-08-10T20:02:09.733Z,77.20
2018-08-10T20:04:38.177Z,81.00
2018-08-10T20:07:06.614Z,81.70
2018-08-10T20:09:35.235Z,83.00
2018-08-10T20:12:03.701Z,85.70
2018-08-10T20:14:32.175Z,88.90
2018-08-10T20:17:00.661Z,89.90
2018-08-10T20:19:29.164Z,90.20
2018-08-10T20:21:57.476Z,90.90
2018-08-10T20:24:25.808Z,93.60
2018-08-10T20:26:54.178Z,96.80
2018-08-10T20:29:22.502Z,99.90
2018-08-10T20:31:51.047Z,99.90
2018-08-10T20:34:19.618Z,99.90
2018-08-10T20:36:48.038Z,99.80
2018-08-10T20:39:16.472Z,99.90
2018-08-10T20:41:45.029Z,99.90
2018-08-10T20:44:13.540Z,99.90
2018-08-10T20:46:42.061Z,99.90
2018-08-10T20:49:10.507Z,99.90
2018-08-10T20:51:38.889Z,99.90
2018-08-10T20:54:07.375Z,99.90
2018-08-10T20:56:35.850Z,99.90
2018-08-10T20:59:04.328Z,99.10
2018-08-10T21:01:32.864Z,98.90
2018-08-10T21:04:01.358Z,99.90
2018-08-10T21:06:29.747Z,99.90
2018-08-10T21:08:58.302Z,99.90
2018-08-10T21:11:26.707Z,99.90
2018-08-10T21:13:55.243Z,99.90
2018-08-10T21:16:23.713Z,99.90
2018-08-10T21:18:52.208Z,99.90
2018-08-10T21:21:20.653Z,99.90
2018-08-10T21:23:49.079Z,99.90
2018-08-10T21:26:17.567Z,99.90
2018-08-10T21:28:46.044Z,99.90
2018-08-10T21:31:14.937Z,99.90
2018-08-10T21:33:43.369Z,99.90
2018-08-10T21:36:11.744Z,99.90
2018-08-10T21:38:40.199Z,99.90
2018-08-10T21:41:08.711Z,99.90
2018-08-10T21:43:37.112Z,99.90
2018-08-10T21:46:05.619Z,99.90
2018-08-10T21:48:34.164Z,99.90
2018-08-10T21:51:02.545Z,99.90
2018-08-10T21:53:31.045Z,99.90
2018-08-10T21:55:59.395Z,99.90
2018-08-10T21:58:27.822Z,99.90
2018-08-10T22:00:58.882Z,99.90
2018-08-10T22:03:27.322Z,99.90
2018-08-10T22:05:55.629Z,99.90
2018-08-10T22:08:24.723Z,99.90
2018-08-10T22:10:53.319Z,99.90
2018-08-10T22:13:27.005Z,99.90
2018-08-10T22:16:00.818Z,99.90
2018-08-10T22:18:34.555Z,99.90
2018-08-10T22:21:03.038Z,99.90
2018-08-10T22:23:31.381Z,99.90
2018-08-10T22:26:00.077Z,99.90
2018-08-10T22:28:28.489Z,99.90
2018-08-10T22:30:56.945Z,99.90
2018-08-10T22:33:25.385Z,99.90
2018-08-10T22:35:53.823Z,99.90
2018-08-10T22:38:22.195Z,99.90
2018-08-10T22:40:50.609Z,99.90
2018-08-10T22:43:19.059Z,99.90
2018-08-10T22:45:47.501Z,99.90
2018-08-10T22:48:15.937Z,99.90
2018-08-10T22:50:44.374Z,99.90
2018-08-10T22:53:12.837Z,99.90
2018-08-10T22:55:41.225Z,99.90
2018-08-10T22:58:09.662Z,99.90
2018-08-10T23:00:38.086Z,99.90
2018-08-10T23:03:06.609Z,99.90
2018-08-10T23:05:35.013Z,99.90
2018-08-10T23:08:03.529Z,99.90
2018-08-10T23:10:32.038Z,99.90
2018-08-10T23:13:00.454Z,99.90
2018-08-10T23:15:28.958Z,99.90
2018-08-10T23:17:57.283Z,99.90
2018-08-10T23:20:25.677Z,99.90
2018-08-10T23:22:54.066Z,99.90
2018-08-10T23:25:22.495Z,99.90
2018-08-10T23:27:50.966Z,99.90
2018-08-10T23:30:19.357Z,99.90
2018-08-10T23:32:47.728Z,99.90
2018-08-10T23:35:16.134Z,99.90
2018-08-10T23:37:44.599Z,99.90
2018-08-10T23:40:14.149Z,99.90
2018-08-10T23:42:42.909Z,99.90
2018-08-10T23:45:12.362Z,99.90
2018-08-10T23:47:41.447Z,99.90
2018-08-10T23:50:12.755Z,99.90
2018-08-10T23:52:41.388Z,99.90
2018-08-10T23:55:10.565Z,99.90
2018-08-10T23:57:40.103Z,99.90
